createdAt,value
2023-04-02T00:02:26.103Z,67.09
2023-04-02T00:05:20.729Z,67.17
2023-04-02T00:07:49.845Z,67.59
2023-04-02T00:10:39.942Z,67.51
2023-04-02T00:13:23.530Z,67.79
2023-04-02T00:15:57.043Z,67.36
2023-04-02T00:18:24.825Z,67.61
2023-04-02T00:21:37.721Z,67.71
2023-04-02T00:24:15.598Z,67.66
2023-04-02T00:26:48.485Z,67.94
2023-04-02T00:29:16.772Z,68.09
2023-04-02T00:31:47.824Z,68.15
2023-04-02T00:34:32.913Z,67.67
2023-04-02T00:37:00.162Z,68.05
2023-04-02T00:39:30.796Z,68.08
2023-04-02T00:42:05.720Z,67.68
2023-04-02T00:44:42.845Z,67.54
2023-04-02T00:47:20.366Z,67.64
2023-04-02T00:49:51.820Z,67.04
2023-04-02T00:52:23.404Z,58.75
2023-04-02T00:54:56.827Z,59.21
2023-04-02T00:57:26.123Z,53.49
2023-04-02T01:00:22.926Z,52.52
2023-04-02T01:03:17.773Z,52.17
2023-04-02T01:05:51.617Z,52.37
2023-04-02T01:08:21.532Z,53.34
2023-04-02T01:11:28.462Z,52.04
2023-04-02T01:14:15.033Z,51.39
2023-04-02T01:17:08.667Z,50.75
2023-04-02T01:20:07.720Z,51.05
2023-04-02T01:22:41.818Z,52.00
2023-04-02T01:25:14.008Z,52.98
2023-04-02T01:28:11.726Z,55.07
2023-04-02T01:30:38.853Z,55.28
2023-04-02T01:33:06.978Z,56.18
2023-04-02T01:35:38.915Z,53.72
2023-04-02T01:38:14.536Z,52.36
2023-04-02T01:40:57.918Z,51.00
2023-04-02T01:43:40.743Z,51.14
2023-04-02T01:46:28.572Z,49.52
2023-04-02T01:48:57.369Z,49.42
2023-04-02T01:51:31.397Z,48.47
2023-04-02T01:54:04.921Z,48.02
2023-04-02T01:56:32.235Z,48.73
2023-04-02T01:59:01.311Z,50.15
2023-04-02T02:01:38.791Z,50.31
2023-04-02T02:04:06.416Z,49.62
2023-04-02T02:06:33.465Z,49.27
2023-04-02T02:09:04.544Z,49.01
2023-04-02T02:11:33.741Z,49.29
2023-04-02T02:14:06.508Z,49.69
2023-04-02T02:16:41.718Z,50.46
2023-04-02T02:19:22.389Z,50.93
2023-04-02T02:21:53.497Z,50.47
2023-04-02T02:24:32.034Z,50.61
2023-04-02T02:27:22.831Z,50.38
2023-04-02T02:29:57.546Z,50.37
2023-04-02T02:32:29.875Z,50.30
2023-04-02T02:35:06.700Z,49.45
2023-04-02T02:37:40.794Z,49.33
2023-04-02T02:40:14.282Z,49.16
2023-04-02T02:42:51.171Z,48.23
2023-04-02T02:45:24.118Z,47.78
2023-04-02T02:47:55.789Z,48.01
2023-04-02T02:50:33.107Z,47.64
2023-04-02T02:53:12.812Z,46.85
2023-04-02T02:55:40.436Z,46.98
2023-04-02T02:58:31.397Z,46.50
2023-04-02T03:01:21.676Z,45.35
2023-04-02T03:03:54.356Z,44.93
2023-04-02T03:06:22.851Z,45.09
2023-04-02T03:09:01.611Z,45.26
2023-04-02T03:11:50.586Z,45.10
2023-04-02T03:14:33.879Z,45.51
2023-04-02T03:17:23.267Z,45.20
2023-04-02T03:19:56.163Z,45.04
2023-04-02T03:22:36.001Z,44.90
2023-04-02T03:25:26.919Z,45.25
2023-04-02T03:28:07.164Z,44.62
2023-04-02T03:30:44.681Z,44.56
2023-04-02T03:33:15.707Z,44.86
2023-04-02T03:36:01.539Z,45.17
2023-04-02T03:38:33.548Z,45.16
2023-04-02T03:41:12.710Z,45.16
2023-04-02T03:43:48.930Z,45.12
2023-04-02T03:46:18.940Z,45.19
2023-04-02T03:48:54.179Z,45.09
2023-04-02T03:51:30.257Z,44.92
2023-04-02T03:53:57.413Z,45.16
2023-04-02T03:56:39.506Z,45.27
2023-04-02T03:59:32.084Z,45.10
2023-04-02T04:02:21.199Z,45.03
2023-04-02T04:04:48.974Z,45.04
2023-04-02T04:07:28.058Z,44.89
2023-04-02T04:09:56.283Z,44.25
2023-04-02T04:12:36.313Z,44.59
2023-04-02T04:15:21.002Z,44.52
2023-04-02T04:18:06.159Z,44.29
2023-04-02T04:20:58.235Z,44.33
2023-04-02T04:23:37.096Z,44.71
2023-04-02T04:26:12.824Z,44.35
2023-04-02T04:29:09.757Z,44.81
2023-04-02T04:31:49.816Z,45.38
2023-04-02T04:34:25.099Z,45.52
2023-04-02T04:37:01.666Z,45.31
2023-04-02T04:39:47.679Z,45.59
2023-04-02T04:42:31.236Z,45.06
2023-04-02T04:45:01.208Z,45.26
2023-04-02T04:47:42.014Z,45.33
2023-04-02T04:50:33.372Z,44.74
2023-04-02T04:53:13.854Z,44.50
2023-04-02T04:55:45.608Z,44.45
2023-04-02T04:58:22.646Z,44.99
2023-04-02T05:01:05.808Z,45.49
2023-04-02T05:03:37.967Z,44.90
2023-04-02T05:06:27.748Z,44.52
2023-04-02T05:08:59.372Z,44.23
2023-04-02T05:11:39.562Z,43.96
2023-04-02T05:14:22.150Z,43.62
2023-04-02T05:16:58.794Z,43.56
2023-04-02T05:19:31.046Z,43.75
2023-04-02T05:22:43.697Z,43.84
2023-04-02T05:25:20.415Z,43.67
2023-04-02T05:28:26.758Z,43.92
2023-04-02T05:31:20.004Z,44.22
2023-04-02T05:33:49.372Z,43.83
2023-04-02T05:36:26.801Z,43.91
2023-04-02T05:38:58.503Z,44.18
2023-04-02T05:41:38.494Z,44.23
2023-04-02T05:44:20.712Z,44.48
2023-04-02T05:46:59.187Z,44.14
2023-04-02T05:49:49.935Z,44.33
2023-04-02T05:52:24.064Z,44.64
2023-04-02T05:55:45.517Z,44.28
2023-04-02T05:58:39.166Z,44.67
2023-04-02T06:01:33.849Z,44.71
2023-04-02T06:04:13.223Z,44.96
2023-04-02T06:06:40.062Z,45.16
2023-04-02T06:09:14.130Z,45.39
2023-04-02T06:11:46.903Z,45.45
2023-04-02T06:14:17.805Z,45.47
2023-04-02T06:16:46.419Z,45.62
2023-04-02T06:19:22.750Z,45.89
2023-04-02T06:21:52.683Z,45.30
2023-04-02T06:24:25.569Z,44.97
2023-04-02T06:26:58.692Z,45.82
2023-04-02T06:29:40.610Z,49.21
2023-04-02T06:32:13.105Z,48.17
2023-04-02T06:34:43.610Z,48.79
2023-04-02T06:37:21.402Z,47.13
2023-04-02T06:39:51.484Z,46.97
2023-04-02T06:42:28.448Z,45.67
2023-04-02T06:45:23.871Z,45.91
2023-04-02T06:48:17.471Z,49.20
2023-04-02T06:51:02.090Z,45.70
2023-04-02T06:53:39.005Z,46.42
2023-04-02T06:56:20.835Z,45.80
2023-04-02T06:58:48.128Z,45.20
2023-04-02T07:01:40.077Z,45.86
2023-04-02T07:04:07.238Z,45.40
2023-04-02T07:06:39.482Z,44.18
2023-04-02T07:09:06.967Z,45.34
2023-04-02T07:11:36.760Z,44.00
2023-04-02T07:14:05.995Z,43.27
2023-04-02T07:16:34.619Z,43.36
2023-04-02T07:19:03.038Z,45.02
2023-04-02T07:21:32.257Z,43.31
2023-04-02T07:23:59.190Z,44.36
2023-04-02T07:26:27.988Z,43.08
2023-04-02T07:28:55.908Z,44.80
2023-04-02T07:31:26.422Z,42.30
2023-04-02T07:33:57.890Z,42.38
2023-04-02T07:36:25.833Z,41.05
2023-04-02T07:38:52.750Z,41.20
2023-04-02T07:41:21.122Z,41.12
2023-04-02T07:43:48.343Z,40.97
2023-04-02T07:46:17.573Z,41.20
2023-04-02T07:48:44.672Z,40.63
2023-04-02T07:51:25.943Z,40.24
2023-04-02T07:53:56.085Z,40.70
2023-04-02T07:56:25.028Z,41.19
2023-04-02T07:58:51.712Z,40.45
2023-04-02T08:01:24.466Z,40.78
2023-04-02T08:03:54.437Z,40.88
2023-04-02T08:06:22.548Z,40.99
2023-04-02T08:08:49.603Z,40.90
2023-04-02T08:11:16.647Z,40.64
2023-04-02T08:13:43.442Z,40.15
2023-04-02T08:16:10.660Z,40.25
2023-04-02T08:18:37.921Z,40.66
2023-04-02T08:21:09.711Z,40.32
2023-04-02T08:23:37.761Z,39.05
2023-04-02T08:26:05.742Z,38.92
2023-04-02T08:28:32.565Z,38.44
2023-04-02T08:30:59.455Z,38.44
2023-04-02T08:33:26.484Z,37.61
2023-04-02T08:35:53.300Z,37.50
2023-04-02T08:38:21.948Z,36.89
2023-04-02T08:40:51.701Z,36.98
2023-04-02T08:43:59.771Z,37.45
2023-04-02T08:46:30.699Z,36.83
2023-04-02T08:49:00.734Z,36.01
2023-04-02T08:51:32.620Z,36.45
2023-04-02T08:54:08.966Z,36.50
2023-04-02T08:56:43.532Z,36.17
2023-04-02T08:59:27.480Z,36.25
2023-04-02T09:02:17.580Z,35.36
2023-04-02T09:04:44.575Z,35.27
2023-04-02T09:07:17.070Z,34.90
2023-04-02T09:09:48.798Z,35.01
2023-04-02T09:12:21.417Z,35.13
2023-04-02T09:15:08.315Z,35.58
2023-04-02T09:17:46.369Z,35.22
2023-04-02T09:20:24.232Z,34.75
2023-04-02T09:22:53.136Z,34.75
2023-04-02T09:25:27.190Z,36.42
2023-04-02T09:27:57.291Z,34.90
2023-04-02T09:30:32.155Z,35.37
2023-04-02T09:33:02.559Z,34.60
2023-04-02T09:35:32.580Z,34.87
2023-04-02T09:38:17.414Z,36.07
2023-04-02T09:40:55.000Z,35.73
2023-04-02T09:43:24.585Z,33.59
2023-04-02T09:45:57.535Z,34.02
2023-04-02T09:48:32.439Z,33.93
2023-04-02T09:51:23.033Z,34.47
2023-04-02T09:54:07.564Z,34.12
2023-04-02T09:56:39.288Z,34.33
2023-04-02T09:59:21.863Z,34.75
2023-04-02T10:01:54.656Z,33.78
2023-04-02T10:04:44.796Z,33.64
2023-04-02T10:07:44.193Z,33.52
2023-04-02T10:10:26.437Z,33.74
2023-04-02T10:13:11.623Z,33.11
2023-04-02T10:15:44.417Z,32.37
2023-04-02T10:18:21.588Z,32.73
2023-04-02T10:20:52.767Z,32.99
2023-04-02T10:23:19.945Z,33.19
2023-04-02T10:25:55.062Z,32.43
2023-04-02T10:28:47.236Z,31.70
2023-04-02T10:31:25.351Z,31.43
2023-04-02T10:34:11.395Z,31.80
2023-04-02T10:36:54.994Z,30.44
2023-04-02T10:39:52.594Z,30.55
2023-04-02T10:42:19.290Z,30.16
2023-04-02T10:44:56.328Z,29.11
2023-04-02T10:47:27.263Z,29.76
2023-04-02T10:50:08.619Z,29.92
2023-04-02T10:52:43.169Z,29.82
2023-04-02T10:55:23.892Z,29.11
2023-04-02T10:57:53.085Z,29.61
2023-04-02T11:00:28.073Z,29.02
2023-04-02T11:03:19.089Z,28.28
2023-04-02T11:05:51.343Z,28.84
2023-04-02T11:08:24.139Z,28.73
2023-04-02T11:10:56.724Z,29.24
2023-04-02T11:13:29.720Z,27.89
2023-04-02T11:15:56.799Z,27.45
2023-04-02T11:18:32.750Z,28.01
2023-04-02T11:21:01.900Z,27.23
2023-04-02T11:23:55.661Z,26.83
2023-04-02T11:26:42.843Z,27.79
2023-04-02T11:29:17.460Z,28.99
2023-04-02T11:31:45.990Z,27.48
2023-04-02T11:34:41.567Z,27.45
2023-04-02T11:37:11.345Z,27.80
2023-04-02T11:39:54.078Z,27.83
2023-04-02T11:42:25.485Z,27.67
2023-04-02T11:44:54.190Z,28.45
2023-04-02T11:47:25.181Z,28.08
2023-04-02T11:49:54.893Z,28.26
2023-04-02T11:52:31.032Z,28.16
2023-04-02T11:55:02.984Z,26.87
2023-04-02T11:57:32.837Z,26.10
2023-04-02T12:00:21.976Z,26.24
2023-04-02T12:03:28.437Z,26.39
2023-04-02T12:05:58.925Z,26.44
2023-04-02T12:08:58.557Z,26.30
2023-04-02T12:11:38.024Z,26.34
2023-04-02T12:14:29.680Z,25.29
2023-04-02T12:16:57.401Z,25.56
2023-04-02T12:19:26.063Z,25.93
2023-04-02T12:21:53.900Z,26.75
2023-04-02T12:24:23.568Z,27.38
2023-04-02T12:27:15.668Z,27.28
2023-04-02T12:29:43.055Z,28.05
2023-04-02T12:32:30.115Z,27.76
2023-04-02T12:34:58.958Z,28.43
2023-04-02T12:37:28.153Z,27.97
2023-04-02T12:40:16.113Z,27.57
2023-04-02T12:42:42.815Z,33.63
2023-04-02T12:45:42.130Z,35.49
2023-04-02T12:48:10.968Z,35.76
2023-04-02T12:50:41.750Z,36.57
2023-04-02T12:53:38.662Z,37.33
2023-04-02T12:56:06.288Z,38.47
2023-04-02T12:58:36.088Z,39.23
2023-04-02T13:01:20.392Z,39.58
2023-04-02T13:04:16.528Z,41.00
2023-04-02T13:06:52.185Z,41.20
2023-04-02T13:09:49.314Z,42.40
2023-04-02T13:12:30.769Z,43.14
2023-04-02T13:14:59.201Z,43.28
2023-04-02T13:17:45.174Z,43.38
2023-04-02T13:20:34.476Z,43.48
2023-04-02T13:23:22.512Z,43.27
2023-04-02T13:25:49.564Z,43.88
2023-04-02T13:28:16.409Z,43.88
2023-04-02T13:30:43.315Z,44.04
2023-04-02T13:33:10.117Z,43.06
2023-04-02T13:35:37.025Z,44.39
2023-04-02T13:38:05.775Z,45.41
2023-04-02T13:40:34.129Z,45.87
2023-04-02T13:43:01.257Z,45.78
2023-04-02T13:45:31.186Z,46.09
2023-04-02T13:48:01.052Z,43.05
2023-04-02T13:50:30.812Z,44.12
2023-04-02T13:53:00.422Z,43.76
2023-04-02T13:55:32.132Z,42.19
2023-04-02T13:57:58.930Z,43.07
2023-04-02T14:00:26.720Z,42.74
2023-04-02T14:03:01.664Z,42.15
2023-04-02T14:05:37.048Z,41.74
2023-04-02T14:08:08.934Z,42.00
2023-04-02T14:10:44.434Z,39.70
2023-04-02T14:13:26.502Z,40.84
2023-04-02T14:15:58.934Z,41.10
2023-04-02T14:18:25.982Z,41.22
2023-04-02T14:21:07.094Z,41.33
2023-04-02T14:23:50.012Z,41.08
2023-04-02T14:26:53.429Z,40.52
2023-04-02T14:29:48.483Z,40.30
2023-04-02T14:32:30.800Z,40.71
2023-04-02T14:35:21.776Z,41.04
2023-04-02T14:38:13.298Z,42.14
2023-04-02T14:40:46.488Z,43.16
2023-04-02T14:43:23.771Z,43.03
2023-04-02T14:46:12.596Z,42.69
2023-04-02T14:48:57.213Z,42.22
2023-04-02T14:51:47.525Z,43.56
2023-04-02T14:54:35.926Z,49.10
2023-04-02T14:57:16.987Z,48.75
2023-04-02T14:59:58.938Z,48.03
2023-04-02T15:02:48.762Z,47.25
2023-04-02T15:05:46.649Z,46.34
2023-04-02T15:08:33.935Z,46.43
2023-04-02T15:11:26.145Z,46.82
2023-04-02T15:14:12.295Z,46.36
2023-04-02T15:16:39.186Z,46.51
2023-04-02T15:19:16.854Z,46.72
2023-04-02T15:22:08.686Z,46.93
2023-04-02T15:25:04.804Z,47.14
2023-04-02T15:27:59.216Z,46.67
2023-04-02T15:30:41.325Z,46.42
2023-04-02T15:33:31.254Z,46.49
2023-04-02T15:36:09.420Z,46.26
2023-04-02T15:38:51.175Z,46.45
2023-04-02T15:41:26.634Z,46.89
2023-04-02T15:44:15.875Z,47.49
2023-04-02T15:46:48.829Z,48.11
2023-04-02T15:49:25.949Z,48.02
2023-04-02T15:52:06.740Z,47.98
2023-04-02T15:54:57.062Z,48.84
2023-04-02T15:57:30.857Z,49.04
2023-04-02T16:00:04.124Z,48.94
2023-04-02T16:02:58.617Z,49.30
2023-04-02T16:05:40.941Z,49.51
2023-04-02T16:08:26.346Z,49.88
2023-04-02T16:10:53.266Z,50.23
2023-04-02T16:13:26.635Z,50.43
2023-04-02T16:16:14.387Z,50.30
2023-04-02T16:18:53.405Z,50.59
2023-04-02T16:21:27.188Z,51.13
2023-04-02T16:23:56.657Z,52.35
2023-04-02T16:26:42.066Z,52.62
2023-04-02T16:29:23.789Z,53.16
2023-04-02T16:32:03.353Z,53.67
2023-04-02T16:34:46.678Z,54.06
2023-04-02T16:37:52.099Z,54.05
2023-04-02T16:40:26.104Z,53.80
2023-04-02T16:43:14.142Z,53.87
2023-04-02T16:45:43.550Z,54.46
2023-04-02T16:48:12.384Z,55.12
2023-04-02T16:50:51.437Z,56.01
2023-04-02T16:53:39.895Z,56.79
2023-04-02T16:56:28.921Z,57.40
2023-04-02T16:59:17.308Z,57.76
2023-04-02T17:01:44.136Z,58.36
2023-04-02T17:04:22.693Z,58.19
2023-04-02T17:07:25.354Z,58.02
2023-04-02T17:09:56.850Z,57.68
2023-04-02T17:12:33.421Z,57.81
2023-04-02T17:15:17.051Z,58.01
2023-04-02T17:17:56.732Z,59.00
2023-04-02T17:20:25.130Z,59.73
2023-04-02T17:22:53.350Z,60.01
2023-04-02T17:25:30.384Z,60.85
2023-04-02T17:27:57.671Z,61.27
2023-04-02T17:30:46.113Z,61.06
2023-04-02T17:33:14.720Z,61.05
2023-04-02T17:36:08.912Z,61.11
2023-04-02T17:38:44.906Z,61.25
2023-04-02T17:41:21.289Z,61.29
2023-04-02T17:44:03.662Z,62.32
2023-04-02T17:46:45.849Z,62.45
2023-04-02T17:49:31.230Z,62.32
2023-04-02T17:52:10.966Z,62.64
2023-04-02T17:54:38.273Z,62.51
2023-04-02T17:57:05.033Z,63.18
2023-04-02T17:59:45.597Z,62.76
2023-04-02T18:02:33.960Z,63.13
2023-04-02T18:05:09.204Z,63.64
2023-04-02T18:07:52.261Z,64.58
2023-04-02T18:10:51.586Z,64.82
2023-04-02T18:13:37.851Z,65.79
2023-04-02T18:16:25.894Z,66.37
2023-04-02T18:19:17.318Z,67.21
2023-04-02T18:21:44.277Z,67.06
2023-04-02T18:24:14.072Z,67.40
2023-04-02T18:26:50.126Z,67.73
2023-04-02T18:29:23.432Z,67.44
2023-04-02T18:32:26.155Z,67.48
2023-04-02T18:35:03.830Z,67.40
2023-04-02T18:37:47.469Z,67.49
2023-04-02T18:40:23.523Z,66.42
2023-04-02T18:43:18.929Z,65.89
2023-04-02T18:46:23.029Z,65.03
2023-04-02T18:48:56.906Z,65.22
2023-04-02T18:51:29.250Z,64.74
2023-04-02T18:54:16.080Z,63.91
2023-04-02T18:56:43.014Z,62.94
2023-04-02T18:59:12.536Z,62.74
2023-04-02T19:04:20.594Z,61.32
2023-04-02T19:06:54.381Z,61.02
2023-04-02T19:09:26.629Z,60.87
2023-04-02T19:11:53.434Z,60.41
2023-04-02T19:14:21.361Z,59.61
2023-04-02T19:17:01.657Z,59.01
2023-04-02T19:19:47.988Z,58.56
2023-04-02T19:22:39.600Z,58.68
2023-04-02T19:25:29.930Z,57.94
2023-04-02T19:28:05.689Z,54.67
2023-04-02T19:30:38.675Z,54.87
2023-04-02T19:33:44.057Z,53.90
2023-04-02T19:36:27.656Z,54.52
2023-04-02T19:39:15.293Z,55.55
2023-04-02T19:42:07.608Z,56.45
2023-04-02T19:44:34.388Z,57.07
2023-04-02T19:47:01.261Z,56.41
2023-04-02T19:49:34.691Z,56.08
2023-04-02T19:52:01.500Z,55.65
2023-04-02T19:54:28.561Z,55.48
2023-04-02T19:56:55.700Z,55.55
2023-04-02T19:59:22.463Z,55.37
2023-04-02T20:01:49.253Z,55.20
2023-04-02T20:04:16.100Z,54.75
2023-04-02T20:06:42.975Z,54.29
2023-04-02T20:09:09.922Z,54.13
2023-04-02T20:11:38.404Z,54.38
2023-04-02T20:14:05.990Z,54.39
2023-04-02T20:16:34.417Z,54.37
2023-04-02T20:19:01.573Z,53.72
2023-04-02T20:21:28.581Z,53.99
2023-04-02T20:23:55.821Z,53.30
2023-04-02T20:26:22.854Z,53.05
2023-04-02T20:28:49.824Z,52.70
2023-04-02T20:31:18.472Z,52.70
2023-04-02T20:33:45.763Z,52.52
2023-04-02T20:36:15.776Z,52.62
2023-04-02T20:38:43.440Z,52.60
2023-04-02T20:41:10.610Z,52.46
2023-04-02T20:43:40.608Z,52.31
2023-04-02T20:46:10.094Z,52.28
2023-04-02T20:48:38.240Z,52.43
2023-04-02T20:51:07.063Z,52.41
2023-04-02T20:53:36.486Z,52.68
2023-04-02T20:56:05.864Z,52.89
2023-04-02T20:58:33.288Z,52.70
2023-04-02T21:01:16.488Z,52.75
2023-04-02T21:03:43.771Z,52.16
2023-04-02T21:06:19.242Z,51.22
2023-04-02T21:08:46.396Z,50.80
2023-04-02T21:11:13.715Z,52.51
2023-04-02T21:13:42.453Z,50.65
2023-04-02T21:16:19.246Z,49.98
2023-04-02T21:18:48.047Z,49.94
2023-04-02T21:21:15.675Z,49.80
2023-04-02T21:23:44.381Z,49.49
2023-04-02T21:26:17.139Z,49.28
2023-04-02T21:28:45.301Z,48.81
2023-04-02T21:31:17.924Z,48.58
2023-04-02T21:33:47.540Z,48.87
2023-04-02T21:36:20.163Z,48.64
2023-04-02T21:38:49.685Z,49.22
2023-04-02T21:41:23.966Z,49.13
2023-04-02T21:43:51.387Z,49.26
2023-04-02T21:46:22.102Z,49.36
2023-04-02T21:48:50.447Z,49.33
2023-04-02T21:51:21.138Z,49.38
2023-04-02T21:53:49.059Z,49.23
2023-04-02T21:56:23.693Z,49.54
2023-04-02T21:58:51.181Z,49.87
2023-04-02T22:01:26.738Z,50.12
2023-04-02T22:03:58.924Z,50.20
2023-04-02T22:06:28.038Z,50.43
2023-04-02T22:09:06.412Z,50.49
2023-04-02T22:11:36.421Z,50.54
2023-04-02T22:14:04.376Z,50.46
2023-04-02T22:16:32.871Z,50.31
2023-04-02T22:19:02.198Z,50.58
2023-04-02T22:21:31.368Z,50.73
2023-04-02T22:24:02.718Z,50.55
2023-04-02T22:26:30.352Z,50.68
2023-04-02T22:28:57.366Z,50.75
2023-04-02T22:31:26.723Z,51.20
2023-04-02T22:33:55.389Z,51.18
2023-04-02T22:36:23.442Z,51.15
2023-04-02T22:38:50.984Z,51.43
2023-04-02T22:41:27.490Z,51.93
2023-04-02T22:43:57.208Z,52.01
2023-04-02T22:46:25.537Z,51.90
2023-04-02T22:48:52.685Z,52.36
2023-04-02T22:51:21.149Z,52.31
2023-04-02T22:53:48.488Z,52.77
2023-04-02T22:56:18.360Z,52.68
2023-04-02T22:58:45.575Z,53.09
2023-04-02T23:01:19.334Z,52.94
2023-04-02T23:03:46.160Z,52.76
2023-04-02T23:06:15.723Z,53.21
2023-04-02T23:08:43.074Z,53.19
2023-04-02T23:11:16.815Z,53.26
2023-04-02T23:13:44.590Z,53.14
2023-04-02T23:16:13.511Z,52.96
2023-04-02T23:18:41.709Z,53.19
2023-04-02T23:21:09.366Z,53.01
2023-04-02T23:23:36.819Z,53.67
2023-04-02T23:26:08.166Z,53.58
2023-04-02T23:28:36.326Z,53.87
2023-04-02T23:31:05.006Z,54.09
2023-04-02T23:33:31.834Z,54.38
2023-04-02T23:35:58.761Z,54.47
2023-04-02T23:38:26.451Z,54.62
2023-04-02T23:40:53.903Z,54.75
2023-04-02T23:43:20.728Z,54.97
2023-04-02T23:45:51.568Z,54.88
2023-04-02T23:48:18.387Z,54.83
2023-04-02T23:50:45.814Z,55.22
2023-04-02T23:53:13.594Z,55.34
2023-04-02T23:55:40.935Z,55.40
2023-04-02T23:58:07.753Z,55.98
